Strona główna
METAR-TAF:

METAR-TAF

Lotnisko :

Port lotniczy Udon Thani

Udon Thani, Tajlandia

Szerokość geograficzna: 17-23N, Długość geograficzna: 102-48E, wysokość: 177 m

Aktualna obserwacja pogody

Raport powstał 8 godziny i 39 minut temu, godzina 14:00 UTC
Wiatr 1 kt z kierunków zmiennych
Temperatura 29°C
Wilgotność 70%
Ciśnienie 1012 hPa
Widzialność 10 km lub więcej
Brak chmur poniżej 1500 m i brak chmur cumulonimbus

METAR: VTUD 101400Z VRB01KT CAVOK 29/23 Q1012 NOSIG

czas: 05:39 (22:39 UTC)

Prognoza

Raport powstał 5 godziny i 39 minut temu, godzina 17:00 UTC
Prognoza ważna od 10 godzina 18 UTC do 11 godzina 18 UTC
Wiatr 6 kt od wschód
Widzialność: 9000 m
Mało chmury na wysokości 3000 ft
Rozproszone chmury na wysokości 8000 ft

TAF: VTUD 101700Z 1018/1118 10006KT 9000 FEW030 SCT080

Obserwacja i prognoza pogody dla ponad 4000 lotnisk (raport METAR i TAF).

Dostępne stacje oznaczono żółtymi i czerwonymi punktami na mapie.

Najedź kursorem aby zobaczyć nazwę stacji.

Kliknij aby zobaczyć obserwacje i prognozy pogody.

Aby zmienić mapę: kliknij na zielony przycisk z czarnym krzyżykiem, aby powiększyć; na zielony przycisk z myślnikiem, aby pomniejszyć; na zielone strzałki, aby przejść do map sąsiednich.


METAR-TAF: